Portada
METAR-TAF:

METAR-TAF

Aeropuertos :

Kristianstad, Suecia

latitud: 55-55N, longitud: 014-05E, altitud: 23 m

Observación

El informe se hizo hace 43 minutos, a las 10:50 UTC
Viento 10 kt del oeste
Temperatura 6°C
Humedad 87%
Presión 1039 hPa
Visibilidad 10 km o más
Escasas nubes a una altura de 1100 ft
Cielo nuboso a una altura de 6400 ft

METAR: ESMK 201050Z 26010KT 9999 FEW011 BKN064 06/04 Q1039

Hora: 12:33 (11:33 UTC)

Pronóstico

El informe se hizo hace 3 horas y 19 minutos, a las 08:14 UTC
Pronóstico válido del 20 a las 09 UTC al 20 a las 18 UTC
Viento 12 kt del oeste-suroeste
Visibilidad 10 km o más
Nubes dispersas a una altura de 1000 ft
Temporalmente
del 20 a las 09 UTC al 20 a las 12 UTC
Cielo nuboso a una altura de 800 ft
Temporalmente
del 20 a las 12 UTC al 20 a las 18 UTC
Cielo nuboso a una altura de 1000 ft

TAF: ESMK 200814Z 2009/2018 25012KT 9999 SCT010 TEMPO 2009/2012 BKN008 TEMPO 2012/2018 BKN010

Observaciones y pronósticos meteorológicos de más de 4000 aeropuertos (mensajes METAR y TAF).

Los puntos amarillos y rojos representan las estaciones disponibles.

Ponga el ratón en el punto deseado para ver el nombre de la estación.

Haga clic para ver las observaciones y los pronósticos meteorológicos.

Para cambiar el mapa : haga clic en los botones verdes con una cruz de color negro para hacer un zoom, en el botón verde con un guión para alejar o en las flechas verdes para mapas adyacentes.


METAR-TAF: